Time;durP1;ratioP1;P1;durP2;ratioP2;P2;SDS_P1;SDS_P2;PMS_P1;PMS_P2;Temp;Humidity;BMP_temperature;BMP_pressure;BME280_temperature;BME280_humidity;BME280_pressure;Samples;Min_cycle;Max_cycle;Signal;HPM_P1;HPM_P2
2022/05/24 00:02:44;;;;;;;3.15;3.05;;;10.40;99.90;;;;;;6095655;29;20501;-69
2022/05/24 00:05:52;;;;;;;2.90;2.72;;;10.30;99.90;;;;;;6096549;29;20277;-67
2022/05/24 00:08:57;;;;;;;2.70;2.60;;;10.30;99.90;;;;;;6096592;29;20300;-69
2022/05/24 00:12:12;;;;;;;4.55;3.00;;;10.30;99.90;;;;;;6096944;29;20277;-67
2022/05/24 00:15:23;;;;;;;3.90;2.92;;;10.20;99.90;;;;;;6098645;29;20273;-68
2022/05/24 00:18:30;;;;;;;6.47;2.60;;;10.20;99.90;;;;;;6097079;29;20311;-68
2022/05/24 00:21:36;;;;;;;3.13;2.85;;;10.10;99.90;;;;;;6096895;29;20269;-67
2022/05/24 00:24:42;;;;;;;2.70;2.63;;;10.10;99.90;;;;;;6097375;29;20304;-66
2022/05/24 00:27:50;;;;;;;3.28;3.08;;;10.10;99.90;;;;;;6096040;29;20481;-68
2022/05/24 00:31:00;;;;;;;3.15;2.97;;;10.10;99.90;;;;;;6096817;29;20272;-67
2022/05/24 00:34:06;;;;;;;2.97;2.80;;;10.00;99.90;;;;;;6095920;29;20495;-68
2022/05/24 00:37:11;;;;;;;3.10;2.90;;;10.10;99.90;;;;;;6094090;29;20281;-67
2022/05/24 00:40:28;;;;;;;3.00;2.90;;;10.10;99.90;;;;;;6096858;29;20335;-69
2022/05/24 00:43:37;;;;;;;3.03;2.83;;;10.10;99.90;;;;;;6097833;29;20309;-69
2022/05/24 00:46:48;;;;;;;3.45;3.25;;;10.10;99.90;;;;;;6097496;29;20540;-69
2022/05/24 00:49:59;;;;;;;3.22;3.05;;;10.20;99.90;;;;;;6096527;29;20306;-67
2022/05/24 00:53:09;;;;;;;4.43;3.03;;;10.30;99.90;;;;;;6093813;29;20312;-67
2022/05/24 00:56:22;;;;;;;3.53;3.17;;;10.30;99.90;;;;;;6096872;29;20570;-68
2022/05/24 00:59:33;;;;;;;3.15;3.03;;;10.30;99.90;;;;;;6096443;29;20301;-68
2022/05/24 01:02:41;;;;;;;3.00;2.90;;;10.30;99.90;;;;;;6095956;29;20292;-68
2022/05/24 01:05:47;;;;;;;3.97;3.50;;;10.20;99.90;;;;;;6096863;29;20276;-68
2022/05/24 01:08:53;;;;;;;3.58;3.38;;;10.20;99.90;;;;;;6097035;29;20300;-68
2022/05/24 01:12:02;;;;;;;3.97;3.85;;;10.10;99.90;;;;;;6095699;29;20268;-67
2022/05/24 01:15:11;;;;;;;3.30;3.05;;;10.00;99.90;;;;;;6092393;29;20280;-67
2022/05/24 01:18:18;;;;;;;3.05;2.95;;;10.00;99.90;;;;;;6091984;29;20309;-69
2022/05/24 01:21:25;;;;;;;7.05;3.13;;;10.00;99.90;;;;;;6094108;29;20284;-68
2022/05/24 01:24:39;;;;;;;3.85;3.55;;;10.00;99.90;;;;;;6092342;29;20303;-69
2022/05/24 01:27:46;;;;;;;4.88;3.05;;;10.10;99.90;;;;;;6092485;29;20312;-69
2022/05/24 01:30:51;;;;;;;3.72;3.53;;;10.10;99.90;;;;;;6097867;29;20269;-69
2022/05/24 01:37:20;;;;;;;3.58;3.35;;;9.90;99.90;;;;;;6107163;29;20236;-69
2022/05/24 01:40:26;;;;;;;3.97;3.53;;;9.90;99.90;;;;;;6096396;29;20272;-69
2022/05/24 01:43:32;;;;;;;4.07;3.78;;;9.80;99.90;;;;;;6095747;29;20300;-69
2022/05/24 01:46:44;;;;;;;7.72;3.47;;;9.90;99.90;;;;;;6095876;29;20281;-69
2022/05/24 01:49:53;;;;;;;5.47;3.25;;;9.80;99.90;;;;;;6095836;29;20403;-68
2022/05/24 01:53:03;;;;;;;4.78;4.20;;;9.80;99.90;;;;;;6095471;29;20304;-68
2022/05/24 01:56:12;;;;;;;5.93;3.75;;;9.80;99.90;;;;;;6096138;29;20276;-68
2022/05/24 01:59:20;;;;;;;3.80;3.70;;;9.70;99.90;;;;;;6095250;29;20300;-69
2022/05/24 02:02:25;;;;;;;4.45;3.80;;;9.70;99.90;;;;;;6095361;29;20292;-69
2022/05/24 02:05:36;;;;;;;9.52;3.90;;;9.80;99.90;;;;;;6096133;29;20292;-69
2022/05/24 02:08:41;;;;;;;8.80;4.03;;;9.90;99.90;;;;;;6095051;29;20395;-68
2022/05/24 02:11:48;;;;;;;7.13;4.10;;;9.90;99.90;;;;;;6095152;29;20273;-68
2022/05/24 02:14:57;;;;;;;5.38;4.18;;;9.80;99.90;;;;;;6095347;29;20304;-69
2022/05/24 02:18:07;;;;;;;8.32;4.10;;;9.80;99.90;;;;;;6095444;29;20305;-68
2022/05/24 02:21:13;;;;;;;6.63;4.32;;;9.70;99.90;;;;;;6095328;29;20277;-68
2022/05/24 02:24:21;;;;;;;4.40;4.10;;;9.60;99.90;;;;;;6095380;29;20511;-69
2022/05/24 02:27:28;;;;;;;4.90;3.80;;;9.70;99.90;;;;;;6094856;29;20300;-68
2022/05/24 02:30:56;;;;;;;6.22;4.40;;;9.60;99.90;;;;;;6101568;29;20253;-67
2022/05/24 02:34:02;;;;;;;7.47;3.70;;;9.70;99.90;;;;;;6095275;29;20426;-68
2022/05/24 02:37:08;;;;;;;9.32;4.30;;;9.70;99.90;;;;;;6094512;29;20276;-68
2022/05/24 02:43:38;;;;;;;3.63;3.53;;;9.50;99.90;;;;;;6094546;29;20304;-68
2022/05/24 02:46:47;;;;;;;4.88;3.67;;;9.60;99.90;;;;;;6094526;29;20276;-68
2022/05/24 02:49:52;;;;;;;4.18;3.95;;;9.60;99.90;;;;;;6094643;29;20300;-71
2022/05/24 02:52:58;;;;;;;4.00;3.80;;;9.70;99.90;;;;;;6094023;29;20300;-68
2022/05/24 02:56:08;;;;;;;6.50;4.10;;;9.70;99.90;;;;;;6094497;29;20276;-69
2022/05/24 02:59:13;;;;;;;4.50;4.22;;;9.70;99.90;;;;;;6094285;29;20305;-68
2022/05/24 03:02:20;;;;;;;4.20;3.95;;;9.80;99.90;;;;;;6093087;29;20269;-68
2022/05/24 03:05:26;;;;;;;4.60;4.20;;;9.80;99.90;;;;;;6094154;29;20297;-69
2022/05/24 03:15:17;;;;;;;4.55;4.30;;;9.60;99.90;;;;;;6093136;29;20397;-70
2022/05/24 03:18:24;;;;;;;4.13;3.92;;;9.60;99.90;;;;;;6093577;29;20300;-69
2022/05/24 03:21:30;;;;;;;4.68;4.28;;;9.70;99.90;;;;;;6093661;29;20273;-68
2022/05/24 03:24:36;;;;;;;7.00;4.80;;;9.80;99.90;;;;;;6093032;29;20301;-68
2022/05/24 03:27:42;;;;;;;4.93;4.53;;;9.70;99.90;;;;;;6092900;29;20296;-68
2022/05/24 03:30:47;;;;;;;5.00;4.60;;;9.80;99.90;;;;;;6094262;29;20280;-68
2022/05/24 03:33:56;;;;;;;4.85;4.57;;;9.90;99.90;;;;;;6093320;29;20304;-68
2022/05/24 03:37:06;;;;;;;4.88;4.18;;;9.90;99.90;;;;;;6093559;29;20272;-69
2022/05/24 03:40:12;;;;;;;4.70;4.45;;;10.00;99.90;;;;;;6093202;29;20312;-67
2022/05/24 03:43:18;;;;;;;4.68;4.38;;;10.10;99.90;;;;;;6092961;29;20305;-68
2022/05/24 03:46:23;;;;;;;4.78;4.32;;;10.20;99.90;;;;;;6093158;29;20296;-67
2022/05/24 03:49:30;;;;;;;5.35;4.55;;;10.30;99.90;;;;;;6092983;29;20304;-68
2022/05/24 03:52:35;;;;;;;4.43;4.18;;;10.20;99.90;;;;;;6092723;29;20465;-67
2022/05/24 03:55:41;;;;;;;4.85;4.40;;;10.20;99.90;;;;;;6093198;29;20276;-68
2022/05/24 03:58:47;;;;;;;5.38;4.88;;;10.30;99.90;;;;;;6092089;29;20319;-68
2022/05/24 04:01:53;;;;;;;4.72;4.32;;;10.40;99.90;;;;;;6092843;29;20272;-69
2022/05/24 04:05:00;;;;;;;4.68;4.28;;;10.50;99.90;;;;;;6092611;29;20543;-69
2022/05/24 04:08:07;;;;;;;5.05;4.55;;;10.50;99.90;;;;;;6092869;29;20305;-68
2022/05/24 04:11:13;;;;;;;5.95;4.70;;;10.50;99.90;;;;;;6093030;29;20355;-68
2022/05/24 04:14:19;;;;;;;4.45;4.10;;;10.60;99.90;;;;;;6092577;29;20300;-67
2022/05/24 04:17:24;;;;;;;4.47;4.10;;;10.60;99.90;;;;;;6092974;29;20272;-70
2022/05/24 04:20:32;;;;;;;8.27;4.45;;;10.60;99.90;;;;;;6093313;29;20277;-68
2022/05/24 04:23:37;;;;;;;4.50;4.03;;;10.70;99.90;;;;;;6092875;29;20304;-68
2022/05/24 04:26:43;;;;;;;4.30;4.00;;;10.80;99.90;;;;;;6092536;29;20312;-68
2022/05/24 04:29:51;;;;;;;4.90;4.47;;;10.80;99.90;;;;;;6092314;29;20308;-69
2022/05/24 04:32:57;;;;;;;4.30;4.07;;;10.90;99.90;;;;;;6092430;29;20600;-69
2022/05/24 04:36:04;;;;;;;4.70;4.20;;;11.00;99.90;;;;;;6092546;29;20280;-69
2022/05/24 04:39:10;;;;;;;4.82;4.05;;;11.00;99.90;;;;;;6091954;29;20304;-69
2022/05/24 04:42:25;;;;;;;7.35;4.25;;;11.00;99.90;;;;;;6092080;29;20459;-70
2022/05/24 04:45:30;;;;;;;10.00;4.47;;;11.20;99.90;;;;;;6092318;29;20292;-69
2022/05/24 04:48:36;;;;;;;7.60;4.22;;;11.30;99.90;;;;;;6092186;29;20301;-68
2022/05/24 04:51:43;;;;;;;9.52;3.92;;;11.40;99.90;;;;;;6092385;29;20276;-68
2022/05/24 04:54:49;;;;;;;5.10;3.55;;;11.50;99.90;;;;;;6092340;29;20304;-69
2022/05/24 04:57:55;;;;;;;5.78;3.47;;;11.50;99.90;;;;;;6091884;29;20300;-69
2022/05/24 05:01:00;;;;;;;5.70;3.65;;;11.60;99.90;;;;;;6092611;29;20342;-68
2022/05/24 05:04:06;;;;;;;5.07;3.72;;;11.60;99.90;;;;;;6091163;29;20301;-69
2022/05/24 05:07:15;;;;;;;4.22;3.47;;;11.50;99.90;;;;;;6092694;29;20304;-69
2022/05/24 05:10:21;;;;;;;4.57;3.67;;;11.70;99.90;;;;;;6093478;29;20284;-69
2022/05/24 05:13:27;;;;;;;5.50;3.58;;;11.80;99.90;;;;;;6096141;29;20300;-69
2022/05/24 05:16:33;;;;;;;7.30;2.97;;;11.90;99.90;;;;;;6096539;29;20284;-68
2022/05/24 05:19:39;;;;;;;3.58;3.17;;;11.90;99.90;;;;;;6096425;29;20482;-70
2022/05/24 05:22:46;;;;;;;9.45;3.83;;;12.10;99.90;;;;;;6096329;29;20315;-69
2022/05/24 05:25:51;;;;;;;6.13;3.10;;;12.10;99.90;;;;;;6096956;29;20296;-70
2022/05/24 05:28:56;;;;;;;4.93;3.20;;;12.30;99.90;;;;;;6050006;29;20297;-70
2022/05/24 05:32:00;;;;;;;3.75;3.40;;;12.40;99.90;;;;;;6050246;29;20281;-71
2022/05/24 05:35:08;;;;;;;6.28;3.10;;;12.50;99.90;;;;;;6049466;29;20310;-69
2022/05/24 05:38:15;;;;;;;7.78;3.13;;;12.70;99.90;;;;;;6049646;29;20310;-69
2022/05/24 05:41:23;;;;;;;4.00;2.90;;;12.90;99.90;;;;;;6049954;29;20278;-70
2022/05/24 05:44:29;;;;;;;7.35;3.15;;;13.10;99.90;;;;;;6050494;29;20482;-69
2022/05/24 05:47:35;;;;;;;4.50;3.17;;;13.30;99.90;;;;;;6049363;29;20293;-69
2022/05/24 05:50:40;;;;;;;2.88;2.78;;;13.50;99.90;;;;;;6050042;29;20278;-70
2022/05/24 05:53:47;;;;;;;8.10;2.72;;;13.70;99.90;;;;;;6050445;29;20321;-69
2022/05/24 05:56:55;;;;;;;10.05;2.85;;;13.80;99.40;;;;;;6049510;29;20282;-69
2022/05/24 06:00:01;;;;;;;4.85;2.85;;;14.00;99.30;;;;;;6049153;29;20537;-70
2022/05/24 06:03:09;;;;;;;3.35;2.90;;;14.20;98.20;;;;;;6048949;29;20310;-70
2022/05/24 06:06:20;;;;;;;7.60;2.95;;;14.20;97.00;;;;;;6049140;29;20299;-70
2022/05/24 06:09:26;;;;;;;5.53;2.47;;;14.40;96.80;;;;;;6048670;29;20310;-70
2022/05/24 06:12:35;;;;;;;5.97;2.80;;;14.40;96.60;;;;;;6049832;29;20274;-68
2022/05/24 06:15:48;;;;;;;12.95;2.50;;;14.50;96.40;;;;;;6050756;29;20545;-68
2022/05/24 06:18:56;;;;;;;4.13;2.60;;;14.70;96.10;;;;;;6049692;29;20297;-69
2022/05/24 06:22:01;;;;;;;5.85;2.67;;;14.70;95.30;;;;;;6049513;29;20278;-70
2022/05/24 06:25:10;;;;;;;2.80;2.38;;;14.70;94.70;;;;;;6049025;29;20309;-69
2022/05/24 06:28:17;;;;;;;4.70;2.50;;;14.70;94.20;;;;;;6086388;29;20305;-70
2022/05/24 06:31:22;;;;;;;6.82;2.75;;;14.80;94.40;;;;;;6096389;29;20277;-69
2022/05/24 06:34:29;;;;;;;4.75;2.35;;;14.80;93.80;;;;;;6096170;29;20313;-69
2022/05/24 06:37:35;;;;;;;9.75;2.60;;;14.90;93.70;;;;;;6095653;29;20289;-68
2022/05/24 06:40:41;;;;;;;3.03;2.42;;;15.00;93.00;;;;;;6096766;29;20276;-69
2022/05/24 06:43:48;;;;;;;3.97;2.00;;;15.10;92.80;;;;;;6095254;29;20304;-69
2022/05/24 06:46:54;;;;;;;4.63;2.53;;;15.10;91.90;;;;;;6097537;29;20296;-70
2022/05/24 06:50:00;;;;;;;2.90;2.70;;;15.20;92.80;;;;;;6101081;29;20297;-69
2022/05/24 06:53:05;;;;;;;2.33;2.22;;;15.30;91.30;;;;;;6109114;29;20257;-68
2022/05/24 06:56:15;;;;;;;2.30;2.20;;;15.40;90.70;;;;;;6108276;29;20269;-67
2022/05/24 07:02:45;;;;;;;4.38;2.35;;;15.70;81.10;;;;;;6095259;29;20297;-69
2022/05/24 07:05:51;;;;;;;4.72;2.42;;;15.70;79.50;;;;;;6109031;29;20280;-68
2022/05/24 07:08:56;;;;;;;7.07;2.15;;;15.80;79.80;;;;;;6094238;29;20304;-69
2022/05/24 07:12:05;;;;;;;8.45;2.38;;;15.90;78.70;;;;;;6094404;29;20273;-69
2022/05/24 07:15:13;;;;;;;2.35;2.10;;;16.00;75.10;;;;;;6094512;29;20304;-68
2022/05/24 07:18:18;;;;;;;16.95;3.10;;;15.90;74.60;;;;;;6093011;29;20442;-68
2022/05/24 07:21:24;;;;;;;5.97;2.38;;;16.10;74.20;;;;;;6094430;29;20277;-68
2022/05/24 07:24:31;;;;;;;15.30;2.35;;;16.20;72.00;;;;;;6093770;29;20315;-68
2022/05/24 07:27:38;;;;;;;2.13;1.92;;;16.20;67.20;;;;;;6093813;29;20312;-70
2022/05/24 07:30:44;;;;;;;4.00;2.47;;;16.20;67.50;;;;;;6094896;29;20284;-69
2022/05/24 07:33:49;;;;;;;6.70;2.30;;;16.30;72.80;;;;;;6093494;29;20301;-69
2022/05/24 07:36:54;;;;;;;6.38;2.38;;;16.40;74.40;;;;;;6094224;29;20276;-68
2022/05/24 07:46:47;;;;;;;5.25;2.10;;;16.50;71.40;;;;;;6094693;29;20272;-69
2022/05/24 07:49:52;;;;;;;1.83;1.83;;;16.40;69.40;;;;;;6094451;29;20304;-69
2022/05/24 07:52:58;;;;;;;2.10;2.10;;;16.40;67.80;;;;;;6094124;29;20300;-68
2022/05/24 07:56:05;;;;;;;3.63;2.00;;;16.30;68.10;;;;;;6094786;29;20293;-71
2022/05/24 07:59:12;;;;;;;4.20;2.10;;;16.30;66.80;;;;;;6093787;29;20308;-69
2022/05/24 08:02:19;;;;;;;3.35;2.05;;;16.30;65.60;;;;;;6093061;29;20277;-70
2022/05/24 08:05:25;;;;;;;10.82;1.90;;;16.40;64.80;;;;;;6093627;29;20580;-69
2022/05/24 08:08:30;;;;;;;2.42;2.22;;;16.40;64.80;;;;;;6092849;29;20316;-71
2022/05/24 08:11:35;;;;;;;18.98;3.58;;;16.40;64.60;;;;;;6093061;29;20596;-69
2022/05/24 08:14:42;;;;;;;10.00;2.40;;;16.40;63.80;;;;;;6091351;29;20300;-70
2022/05/24 08:17:48;;;;;;;3.78;2.08;;;16.40;63.40;;;;;;6093076;29;20304;-70
2022/05/24 08:20:55;;;;;;;12.38;2.00;;;16.40;64.30;;;;;;6093792;29;20276;-69
2022/05/24 08:24:00;;;;;;;2.70;1.73;;;16.40;63.00;;;;;;6092589;29;20470;-70
2022/05/24 08:27:06;;;;;;;13.82;2.50;;;16.30;62.40;;;;;;6093099;29;20304;-68
2022/05/24 08:30:17;;;;;;;4.55;2.20;;;16.20;62.40;;;;;;6092533;29;20607;-69
2022/05/24 08:33:24;;;;;;;9.27;2.08;;;16.20;62.80;;;;;;6092736;29;20300;-70
2022/05/24 08:36:29;;;;;;;1.90;1.80;;;16.20;60.20;;;;;;6093449;29;20429;-69
2022/05/24 08:39:36;;;;;;;5.57;1.98;;;16.20;59.60;;;;;;6092320;29;20299;-70
2022/05/24 08:43:05;;;;;;;9.48;1.90;;;16.30;58.20;;;;;;6092469;29;20466;-68
2022/05/24 08:49:41;;;;;;;2.63;1.70;;;16.30;58.30;;;;;;6091849;29;20305;-68
2022/05/24 08:52:52;;;;;;;8.60;2.10;;;16.30;56.50;;;;;;6091362;29;20296;-69
2022/05/24 08:55:58;;;;;;;7.90;1.85;;;16.30;56.10;;;;;;6091552;29;20464;-69
2022/05/24 08:59:07;;;;;;;1.83;1.80;;;16.20;53.40;;;;;;6090111;29;20352;-70
2022/05/24 09:02:14;;;;;;;5.47;1.77;;;16.10;52.70;;;;;;6092507;29;20331;-70
2022/05/24 09:05:25;;;;;;;1.80;1.80;;;16.20;53.20;;;;;;6090837;29;20466;-69
2022/05/24 09:08:34;;;;;;;1.70;1.70;;;16.00;52.40;;;;;;6091438;29;20296;-69
2022/05/24 09:11:52;;;;;;;13.55;2.38;;;15.90;52.00;;;;;;6091844;29;20268;-69
2022/05/24 09:15:12;;;;;;;45.60;4.50;;;16.00;51.70;;;;;;6091348;29;20316;-70
2022/05/24 09:18:37;;;;;;;8.07;2.20;;;16.10;51.30;;;;;;6091565;29;20296;-70
2022/05/24 09:21:43;;;;;;;10.77;2.60;;;16.10;50.70;;;;;;6090916;29;20276;-71
2022/05/24 09:24:53;;;;;;;6.75;2.00;;;16.10;50.40;;;;;;6090971;29;20300;-72
2022/05/24 09:27:58;;;;;;;6.20;1.90;;;16.10;49.60;;;;;;6091176;29;20304;-70
2022/05/24 09:31:04;;;;;;;5.70;1.90;;;16.20;50.00;;;;;;6091983;29;20304;-71
2022/05/24 09:34:25;;;;;;;6.05;1.60;;;16.10;49.20;;;;;;6091432;29;20305;-70
2022/05/24 09:37:32;;;;;;;3.50;1.90;;;16.10;49.00;;;;;;6091076;29;20552;-70
2022/05/24 09:40:51;;;;;;;1.50;1.50;;;16.10;49.20;;;;;;6091792;29;20409;-69
2022/05/24 09:44:05;;;;;;;5.78;1.63;;;16.20;47.90;;;;;;6090013;29;20304;-70
2022/05/24 09:47:25;;;;;;;3.28;2.47;;;16.30;46.90;;;;;;6091526;29;20432;-69
2022/05/24 09:50:36;;;;;;;6.43;1.83;;;16.20;46.90;;;;;;6089204;29;20300;-70
2022/05/24 09:53:52;;;;;;;2.10;1.85;;;16.30;46.30;;;;;;6089513;29;20376;-70
2022/05/24 09:57:06;;;;;;;1.77;1.77;;;16.30;46.60;;;;;;6094731;29;20467;-71
2022/05/24 10:00:20;;;;;;;4.38;1.60;;;16.30;45.70;;;;;;6095437;29;20304;-70
2022/05/24 10:03:30;;;;;;;3.97;1.88;;;16.30;45.10;;;;;;6095044;29;20304;-71
2022/05/24 10:06:37;;;;;;;8.75;1.90;;;16.50;45.50;;;;;;6095430;29;20276;-71
2022/05/24 10:09:52;;;;;;;5.53;1.70;;;16.60;44.90;;;;;;6094714;29;20305;-69
2022/05/24 10:13:17;;;;;;;49.47;4.25;;;16.70;45.00;;;;;;6095045;29;20316;-70
2022/05/24 10:16:32;;;;;;;6.35;2.30;;;16.60;45.40;;;;;;6095169;29;20281;-69
2022/05/24 10:20:07;;;;;;;8.07;2.20;;;16.70;46.20;;;;;;6094566;29;20583;-69
2022/05/24 10:23:28;;;;;;;2.33;2.17;;;16.60;47.30;;;;;;6094806;29;20300;-71
2022/05/24 10:26:47;;;;;;;1.92;1.83;;;16.70;48.80;;;;;;6095047;29;20398;-70
2022/05/24 10:30:01;;;;;;;2.22;2.13;;;16.70;50.40;;;;;;6094105;29;20442;-71
2022/05/24 10:40:23;;;;;;;2.20;2.10;;;16.80;52.50;;;;;;6094398;29;20440;-70
2022/05/24 10:43:49;;;;;;;2.30;2.10;;;16.80;53.30;;;;;;6094418;29;20299;-69
2022/05/24 10:47:02;;;;;;;2.85;2.00;;;17.00;53.80;;;;;;6094827;29;20285;-71
2022/05/24 10:50:11;;;;;;;2.33;2.22;;;17.00;54.20;;;;;;6094241;29;20320;-70
2022/05/24 10:53:25;;;;;;;8.70;2.58;;;17.10;54.90;;;;;;6094032;29;20300;-70
2022/05/24 10:56:40;;;;;;;4.25;2.10;;;17.10;54.60;;;;;;6094329;29;20321;-70
2022/05/24 10:59:55;;;;;;;4.20;2.08;;;17.10;54.80;;;;;;6094811;29;20304;-70
2022/05/24 11:03:08;;;;;;;3.33;2.10;;;17.10;55.40;;;;;;6095158;29;20308;-69
2022/05/24 11:06:22;;;;;;;2.60;2.40;;;17.20;56.00;;;;;;6094724;29;20265;-70
2022/05/24 11:09:30;;;;;;;6.18;2.67;;;17.30;55.60;;;;;;6095279;29;20308;-68
2022/05/24 11:12:44;;;;;;;2.60;2.15;;;17.30;56.10;;;;;;6094692;29;20293;-70
2022/05/24 11:15:53;;;;;;;4.82;2.55;;;17.40;56.50;;;;;;6095336;29;20272;-70
2022/05/24 11:19:13;;;;;;;8.70;2.80;;;17.30;56.50;;;;;;6094696;29;20305;-70
2022/05/24 11:22:27;;;;;;;5.82;2.28;;;17.40;56.80;;;;;;6094647;29;20439;-71
2022/05/24 11:25:39;;;;;;;7.22;2.67;;;17.40;57.60;;;;;;6094457;29;20261;-71
2022/05/24 11:28:49;;;;;;;2.33;2.10;;;17.50;58.00;;;;;;6094364;29;20304;-69
2022/05/24 11:32:01;;;;;;;2.08;2.00;;;17.50;58.60;;;;;;6094385;29;20305;-70
2022/05/24 11:35:11;;;;;;;3.88;2.35;;;17.40;59.30;;;;;;6094122;29;20489;-70
2022/05/24 11:38:35;;;;;;;4.85;2.40;;;17.40;60.00;;;;;;6094736;29;20301;-71
2022/05/24 11:41:40;;;;;;;32.70;3.97;;;17.50;61.00;;;;;;6094219;29;20528;-69
2022/05/24 11:44:48;;;;;;;4.57;2.60;;;17.60;61.10;;;;;;6092642;29;20398;-69
2022/05/24 11:48:01;;;;;;;4.13;2.22;;;17.50;61.70;;;;;;6093960;29;20308;-69
2022/05/24 11:51:33;;;;;;;7.43;2.65;;;17.50;62.10;;;;;;6094097;29;20292;-70
2022/05/24 11:54:59;;;;;;;7.55;2.63;;;17.70;63.30;;;;;;6093864;29;20316;-70
2022/05/24 11:58:24;;;;;;;3.10;2.53;;;17.70;63.20;;;;;;6091047;29;20305;-68
2022/05/24 12:01:48;;;;;;;3.92;2.50;;;17.80;63.40;;;;;;6093756;29;20280;-69
2022/05/24 12:08:33;;;;;;;13.38;3.00;;;17.90;64.80;;;;;;6093922;29;20319;-71
2022/05/24 12:11:38;;;;;;;7.75;2.95;;;17.90;64.60;;;;;;6094154;29;20289;-70
2022/05/24 12:14:44;;;;;;;12.55;2.97;;;18.00;65.00;;;;;;6093356;29;20300;-69
2022/05/24 12:18:12;;;;;;;7.07;2.85;;;18.00;65.90;;;;;;6093724;29;20304;-70
2022/05/24 12:21:48;;;;;;;2.80;2.42;;;18.00;66.70;;;;;;6094408;29;20280;-71
2022/05/24 12:25:00;;;;;;;3.13;2.80;;;18.00;66.50;;;;;;6093492;29;20303;-70
2022/05/24 12:28:11;;;;;;;3.45;2.65;;;18.10;67.70;;;;;;6091663;29;20320;-71
2022/05/24 12:31:32;;;;;;;7.20;2.58;;;18.30;66.10;;;;;;6093941;29;20288;-69
2022/05/24 12:34:39;;;;;;;15.40;3.10;;;18.40;66.50;;;;;;6097286;29;20309;-69
2022/05/24 12:37:48;;;;;;;2.92;2.67;;;18.50;65.50;;;;;;6100212;29;20304;-71
2022/05/24 12:41:11;;;;;;;4.80;2.20;;;18.50;65.90;;;;;;6100757;29;20284;-70
2022/05/24 12:44:22;;;;;;;4.32;2.50;;;18.60;65.50;;;;;;6101947;29;20313;-70
2022/05/24 12:47:28;;;;;;;10.32;2.63;;;18.60;64.50;;;;;;6092688;29;20277;-70
2022/05/24 12:50:40;;;;;;;11.93;3.17;;;18.60;64.40;;;;;;6092187;29;20292;-70
2022/05/24 12:53:45;;;;;;;16.23;2.70;;;18.50;65.40;;;;;;6090700;29;20446;-70
2022/05/24 12:57:01;;;;;;;8.35;2.47;;;18.60;65.10;;;;;;6091923;29;20281;-69
2022/05/24 13:00:12;;;;;;;12.48;2.65;;;18.60;65.30;;;;;;6091710;29;20309;-72
2022/05/24 13:03:24;;;;;;;9.57;2.38;;;18.60;65.50;;;;;;6091614;29;20595;-70
2022/05/24 13:06:46;;;;;;;8.32;3.17;;;18.70;65.20;;;;;;6092515;29;20281;-71
2022/05/24 13:09:51;;;;;;;4.32;2.40;;;18.70;65.60;;;;;;6091461;29;20304;-71
2022/05/24 13:13:00;;;;;;;4.00;2.60;;;18.80;66.00;;;;;;6090999;29;20312;-69
2022/05/24 13:16:07;;;;;;;2.83;2.47;;;18.80;65.50;;;;;;6091411;29;20276;-69
2022/05/24 13:19:13;;;;;;;4.38;2.40;;;18.80;65.20;;;;;;6091251;29;20321;-69
2022/05/24 13:22:20;;;;;;;3.00;2.50;;;18.80;65.90;;;;;;6091515;29;20280;-71
2022/05/24 13:25:29;;;;;;;6.65;2.60;;;18.80;66.50;;;;;;6091600;29;20281;-70
2022/05/24 13:28:38;;;;;;;2.85;2.30;;;19.00;65.60;;;;;;6089985;29;20313;-71
2022/05/24 13:35:11;;;;;;;7.22;2.25;;;19.70;62.40;;;;;;6059898;29;20304;-71
2022/05/24 13:38:24;;;;;;;14.40;2.72;;;20.40;59.80;;;;;;6096126;29;20304;-71
2022/05/24 13:41:35;;;;;;;9.60;2.13;;;20.70;57.90;;;;;;6096196;29;20276;-70
2022/05/24 13:45:03;;;;;;;7.72;2.75;;;20.10;59.60;;;;;;6094516;29;20320;-71
2022/05/24 13:48:26;;;;;;;2.50;2.35;;;19.70;59.80;;;;;;6095047;29;20319;-70
2022/05/24 13:51:35;;;;;;;2.72;2.47;;;20.40;59.10;;;;;;6094412;29;20277;-71
2022/05/24 13:54:42;;;;;;;10.90;2.90;;;20.90;57.70;;;;;;6094163;29;20456;-70
2022/05/24 13:57:55;;;;;;;5.10;2.22;;;20.60;57.30;;;;;;6095316;29;20296;-70
2022/05/24 14:01:05;;;;;;;5.90;2.13;;;20.10;56.50;;;;;;6095920;29;20295;-69
2022/05/24 14:04:17;;;;;;;2.35;2.13;;;19.60;57.20;;;;;;6095262;29;20300;-70
2022/05/24 14:07:22;;;;;;;5.50;2.50;;;19.50;58.60;;;;;;6094633;29;20280;-70
2022/05/24 14:10:32;;;;;;;6.45;2.20;;;19.40;58.10;;;;;;6095744;29;20269;-69
2022/05/24 14:13:37;;;;;;;7.43;2.85;;;19.30;58.30;;;;;;6095803;29;20486;-70
2022/05/24 14:16:42;;;;;;;8.15;2.35;;;19.30;58.80;;;;;;6096937;29;20408;-69
2022/05/24 14:19:48;;;;;;;2.33;2.20;;;19.20;58.50;;;;;;6095909;29;20324;-69
2022/05/24 14:22:54;;;;;;;2.33;2.05;;;19.20;58.90;;;;;;6096130;29;20324;-71
2022/05/24 14:26:01;;;;;;;9.43;2.35;;;19.20;59.30;;;;;;6096227;29;20276;-69
2022/05/24 14:29:08;;;;;;;7.93;2.20;;;19.10;59.60;;;;;;6095207;29;20233;-70
2022/05/24 14:32:13;;;;;;;2.90;1.90;;;19.10;59.40;;;;;;6094738;29;20285;-71
2022/05/24 14:35:18;;;;;;;84.60;5.60;;;19.20;59.70;;;;;;6094782;29;20292;-72
2022/05/24 14:38:24;;;;;;;12.00;2.50;;;19.10;59.70;;;;;;6095163;29;20620;-71
2022/05/24 14:41:32;;;;;;;4.85;2.20;;;19.50;59.60;;;;;;6095393;29;20299;-70
2022/05/24 14:44:38;;;;;;;5.82;2.42;;;20.00;58.90;;;;;;6095252;29;20296;-69
2022/05/24 14:47:43;;;;;;;3.38;2.55;;;20.40;58.40;;;;;;6093469;29;20292;-71
2022/05/24 14:50:49;;;;;;;2.95;2.70;;;20.70;57.70;;;;;;6095420;29;20555;-69
2022/05/24 14:53:55;;;;;;;5.15;2.50;;;20.60;56.70;;;;;;6095232;29;20304;-70
2022/05/24 14:57:15;;;;;;;7.32;2.65;;;20.30;58.00;;;;;;6095159;29;20277;-69
2022/05/24 15:00:23;;;;;;;2.92;2.72;;;20.20;58.00;;;;;;6094609;29;20280;-70
2022/05/24 15:03:29;;;;;;;5.10;2.78;;;20.00;58.20;;;;;;6094527;29;20451;-70
2022/05/24 15:06:37;;;;;;;7.55;2.10;;;19.90;59.20;;;;;;6095324;29;20278;-68
2022/05/24 15:16:41;;;;;;;2.75;2.33;;;19.70;59.50;;;;;;6094600;29;20280;-71
2022/05/24 15:19:47;;;;;;;4.80;1.92;;;19.60;60.00;;;;;;6094528;29;20300;-69
2022/05/24 15:22:58;;;;;;;4.32;2.40;;;19.50;60.90;;;;;;6094233;29;20300;-69
2022/05/24 15:26:09;;;;;;;6.85;2.70;;;19.50;60.20;;;;;;6094511;29;20447;-71
2022/05/24 15:29:16;;;;;;;8.45;2.58;;;19.50;61.20;;;;;;6094253;29;20317;-70
2022/05/24 15:32:22;;;;;;;5.38;2.22;;;19.50;60.40;;;;;;6093660;29;20475;-70
2022/05/24 15:35:27;;;;;;;15.88;3.05;;;19.40;60.50;;;;;;6094124;29;20296;-69
2022/05/24 15:38:33;;;;;;;9.57;2.67;;;19.30;61.40;;;;;;6092753;29;20300;-70
2022/05/24 15:41:39;;;;;;;2.20;2.10;;;19.20;61.20;;;;;;6093912;29;20281;-70
2022/05/24 15:44:46;;;;;;;7.00;2.22;;;19.20;62.40;;;;;;6093723;29;20304;-70
2022/05/24 15:47:51;;;;;;;7.40;2.60;;;19.20;62.80;;;;;;6093685;29;20590;-70
2022/05/24 15:50:56;;;;;;;4.13;2.35;;;19.30;62.10;;;;;;6093956;29;20289;-70
2022/05/24 15:54:02;;;;;;;10.50;2.40;;;19.30;61.40;;;;;;6091720;29;20305;-71
2022/05/24 15:57:07;;;;;;;2.58;2.25;;;19.20;61.30;;;;;;6093745;29;20277;-70
2022/05/24 16:00:17;;;;;;;3.53;2.40;;;19.10;61.80;;;;;;6093950;29;20296;-70
2022/05/24 16:03:24;;;;;;;2.75;2.30;;;19.00;63.00;;;;;;6093554;29;20468;-68
2022/05/24 16:10:04;;;;;;;2.55;2.03;;;18.80;64.00;;;;;;6091990;29;20305;-69
2022/05/24 16:13:13;;;;;;;2.40;2.30;;;18.80;65.10;;;;;;6092279;29;20300;-70
2022/05/24 16:16:21;;;;;;;4.93;2.35;;;18.80;65.90;;;;;;6092537;29;20296;-70
2022/05/24 16:19:28;;;;;;;4.13;2.17;;;18.80;65.70;;;;;;6092599;29;20320;-68
2022/05/24 16:22:34;;;;;;;3.60;2.30;;;18.90;65.90;;;;;;6091888;29;20278;-70
2022/05/24 16:25:40;;;;;;;4.78;2.75;;;18.80;66.00;;;;;;6092898;29;20280;-68
2022/05/24 16:28:50;;;;;;;3.20;2.92;;;18.80;67.10;;;;;;6091688;29;20296;-68
2022/05/24 16:31:57;;;;;;;7.38;3.25;;;18.70;66.90;;;;;;6092261;29;20272;-69
2022/05/24 16:35:02;;;;;;;4.55;2.25;;;18.60;67.30;;;;;;6092152;29;20313;-70
2022/05/24 16:38:07;;;;;;;5.40;2.25;;;18.50;68.60;;;;;;6092297;29;20300;-68
2022/05/24 16:41:14;;;;;;;7.75;2.38;;;18.50;68.60;;;;;;6092350;29;20277;-69
2022/05/24 16:44:19;;;;;;;3.92;2.90;;;18.30;68.50;;;;;;6091903;29;20304;-69
2022/05/24 16:47:26;;;;;;;3.83;2.47;;;18.20;70.00;;;;;;6092128;29;20276;-68
2022/05/24 16:50:31;;;;;;;4.32;2.75;;;18.30;69.90;;;;;;6092516;29;20279;-68
2022/05/24 16:53:45;;;;;;;7.22;2.40;;;18.10;70.60;;;;;;6091893;29;20309;-68
2022/05/24 17:00:21;;;;;;;6.90;3.30;;;17.90;69.70;;;;;;6092117;29;20300;-69
2022/05/24 17:03:29;;;;;;;7.57;2.28;;;17.90;69.10;;;;;;6091928;29;20292;-68
2022/05/24 17:06:34;;;;;;;12.05;2.60;;;17.80;70.00;;;;;;6097569;29;20276;-69
2022/05/24 17:09:40;;;;;;;2.60;2.38;;;18.00;70.30;;;;;;6096924;29;20299;-69
2022/05/24 17:12:48;;;;;;;5.32;2.35;;;18.00;70.90;;;;;;6095681;29;20296;-69
2022/05/24 17:15:53;;;;;;;2.97;2.22;;;18.00;70.50;;;;;;6097325;29;20315;-69
2022/05/24 17:19:00;;;;;;;2.92;2.20;;;18.00;69.70;;;;;;6095128;29;20319;-68
2022/05/24 17:22:06;;;;;;;2.33;2.22;;;17.90;69.80;;;;;;6097337;29;20281;-68